Dades de l'estació automàtica Olot
Resum diari
21:30 TU| Temperatura mitjana | 15.2 °C | |
|---|---|---|
| Temperatura màxima | 22.6 °C | 11:58 TU |
| Temperatura mínima | 10.7 °C | 4:00 TU |
| Humitat relativa mitjana | 84% | |
| Precipitació acumulada | 6.3 mm | |
| Ratxa màxima del vent (10 m) | 27.4 km/h - 211º | 13:31 TU |
| Pressió atmosfèrica mitjana | 1011.5 hPa | |
| Irradiació solar global | 11.1 MJ/m2 | |
El tram horari està expressat en Temps Universal (TU). Cal sumar una hora en horari d'hivern i dues en horari d'estiu per passar a l'hora oficial.
Olot
| Municipi | Olot |
|---|---|
| Comarca | Garrotxa |
| Altitud | 435 m |
| Data alta | 21.07.2016 |
| Estat actual | Operativa |
| Període TU |
TM °C |
TX °C |
TN °C |
HRM % |
PPT mm |
VVM (10 m) km/h |
DVM (10 m) graus |
VVX (10 m) km/h |
PM hPa |
RS W/m2 |
|---|---|---|---|---|---|---|---|---|---|---|
| 00:00 - 00:30 | 12.5 | 12.7 | 12.2 | 93 | 0.0 | 2.2 | 256 | 5.4 | 1014.2 | 0 |
| 00:30 - 01:00 | 12.3 | 12.3 | 12.2 | 95 | 0.0 | 1.4 | 289 | 6.5 | 1014.0 | 0 |
| 01:00 - 01:30 | 12.4 | 12.5 | 12.1 | 94 | 0.0 | 1.8 | 275 | 6.5 | 1013.7 | 0 |
| 01:30 - 02:00 | 11.9 | 12.1 | 11.7 | 96 | 0.0 | 0.7 | 350 | 4.3 | 1013.6 | 0 |
| 02:00 - 02:30 | 11.6 | 11.7 | 11.3 | 97 | 0.0 | 2.2 | 271 | 6.1 | 1013.4 | 0 |
| 02:30 - 03:00 | 11.3 | 11.5 | 11.2 | 97 | 0.0 | 2.9 | 258 | 7.6 | 1013.5 | 0 |
| 03:00 - 03:30 | 11.1 | 11.2 | 11.0 | 97 | 0.0 | 1.4 | 286 | 4.7 | 1013.5 | 0 |
| 03:30 - 04:00 | 11.0 | 11.1 | 10.7 | 96 | 0.0 | 2.2 | 248 | 6.5 | 1013.4 | 0 |
| 04:00 - 04:30 | 11.4 | 11.6 | 10.7 | 94 | 0.0 | 4.7 | 260 | 10.8 | 1013.4 | 0 |
| 04:30 - 05:00 | 11.3 | 11.6 | 11.0 | 93 | 0.0 | 2.2 | 323 | 6.8 | 1013.2 | 4 |
| 05:00 - 05:30 | 11.2 | 11.5 | 11.0 | 96 | 0.0 | 2.2 | 252 | 6.1 | 1013.1 | 39 |
| 05:30 - 06:00 | 12.6 | 13.4 | 11.5 | 92 | 0.0 | 2.2 | 14 | 6.1 | 1012.7 | 97 |
| 06:00 - 06:30 | 14.1 | 15.1 | 13.4 | 87 | 0.0 | 2.2 | 58 | 6.1 | 1012.4 | 193 |
| 06:30 - 07:00 | 16.1 | 17.4 | 15.0 | 75 | 0.0 | 0.7 | 253 | 5.4 | 1012.0 | 353 |
| 07:00 - 07:30 | 16.3 | 16.7 | 16.0 | 75 | 0.0 | 2.9 | 293 | 6.8 | 1011.9 | 230 |
| 07:30 - 08:00 | 16.6 | 16.9 | 16.5 | 72 | 0.0 | 3.2 | 204 | 6.8 | 1011.7 | 162 |
| 08:00 - 08:30 | 17.1 | 17.6 | 16.8 | 71 | 0.0 | 1.1 | 337 | 6.1 | 1011.4 | 237 |
| 08:30 - 09:00 | 18.0 | 18.3 | 17.6 | 69 | 0.0 | 3.2 | 330 | 7.9 | 1011.2 | 336 |
| 09:00 - 09:30 | 18.3 | 18.5 | 18.2 | 65 | 0.1 | 2.5 | 328 | 8.3 | 1011.1 | 243 |
| 09:30 - 10:00 | 19.4 | 19.9 | 18.3 | 59 | 0.0 | 2.5 | 179 | 10.1 | 1011.0 | 380 |
| 10:00 - 10:30 | 19.9 | 20.0 | 19.7 | 56 | 0.0 | 5.0 | 170 | 13.7 | 1011.0 | 363 |
| 10:30 - 11:00 | 20.3 | 20.6 | 20.0 | 55 | 0.0 | 4.0 | 207 | 10.4 | 1010.7 | 395 |
| 11:00 - 11:30 | 21.1 | 21.8 | 20.4 | 53 | 0.1 | 4.0 | 233 | 9.4 | 1010.4 | 757 |
| 11:30 - 12:00 | 21.9 | 22.6 | 21.2 | 55 | 0.0 | 7.9 | 338 | 24.1 | 1009.7 | 923 |
| 12:00 - 12:30 | 21.7 | 22.6 | 21.1 | 61 | 0.0 | 12.2 | 52 | 25.6 | 1009.4 | 505 |
| 12:30 - 13:00 | 19.9 | 21.0 | 19.3 | 66 | 0.0 | 10.1 | 96 | 26.3 | 1009.5 | 152 |
| 13:00 - 13:30 | 18.5 | 19.3 | 18.1 | 72 | 0.0 | 8.6 | 177 | 23.0 | 1009.8 | 26 |
| 13:30 - 14:00 | 16.0 | 18.0 | 15.2 | 82 | 1.5 | 7.9 | 224 | 27.4 | 1010.8 | 49 |
| 14:00 - 14:30 | 15.0 | 15.3 | 14.4 | 86 | 0.2 | 4.7 | 240 | 9.4 | 1010.8 | 52 |
| 14:30 - 15:00 | 14.7 | 14.9 | 14.4 | 90 | 0.5 | 3.2 | 277 | 8.6 | 1010.9 | 95 |
| 15:00 - 15:30 | 14.8 | 15.0 | 14.7 | 93 | 0.5 | 2.9 | 61 | 8.3 | 1010.9 | 86 |
| 15:30 - 16:00 | 15.0 | 15.2 | 14.8 | 94 | 0.7 | 2.9 | 70 | 7.2 | 1010.7 | 121 |
| 16:00 - 16:30 | 15.4 | 15.7 | 15.2 | 93 | 0.0 | 2.2 | 53 | 5.4 | 1010.5 | 132 |
| 16:30 - 17:00 | 15.6 | 15.7 | 15.6 | 90 | 0.0 | 0.7 | 64 | 4.7 | 1010.2 | 113 |
| 17:00 - 17:30 | 15.5 | 15.7 | 15.3 | 91 | 0.0 | 1.4 | 334 | 4.0 | 1010.0 | 76 |
| 17:30 - 18:00 | 15.2 | 15.3 | 15.0 | 93 | 0.0 | 1.1 | 307 | 2.9 | 1010.0 | 30 |
| 18:00 - 18:30 | 14.9 | 15.0 | 14.8 | 95 | 0.0 | 1.1 | 343 | 4.0 | 1010.0 | 12 |
| 18:30 - 19:00 | 14.6 | 14.8 | 14.5 | 95 | 0.0 | 2.9 | 269 | 6.5 | 1010.2 | 3 |
| 19:00 - 19:30 | 14.2 | 14.5 | 14.0 | 95 | 0.0 | 1.8 | 254 | 5.8 | 1010.7 | 0 |
| 19:30 - 20:00 | 13.9 | 14.1 | 13.8 | 96 | 0.0 | 2.5 | 291 | 6.8 | 1011.0 | 0 |
| 20:00 - 20:30 | 13.6 | 13.7 | 13.5 | 96 | 0.0 | 1.8 | 61 | 4.3 | 1011.2 | 0 |
| 20:30 - 21:00 | 13.5 | 13.7 | 13.2 | 94 | 1.0 | 5.0 | 252 | 9.4 | 1011.9 | 0 |
| 21:00 - 21:30 | 12.9 | 13.2 | 12.6 | 97 | 1.6 | 2.5 | 88 | 7.2 | 1012.1 | 0 |
| 21:30 - 22:00 | 12.6 | 12.8 | 12.3 | 97 | 0.1 | 4.3 | 206 | 7.9 | 1011.8 | 0 |
| 22:00 - 22:30 | (s/d) | (s/d) | (s/d) | (s/d) | (s/d) | (s/d) | (s/d) | (s/d) | (s/d) | (s/d) |
Les dades en taronja només han passat un control de qualitat automàtic. Resta pendent la seva validació definitiva.